Time;durP1;ratioP1;P1;durP2;ratioP2;P2;SDS_P1;SDS_P2;PMS_P1;PMS_P2;Temp;Humidity;BMP_temperature;BMP_pressure;BME280_temperature;BME280_humidity;BME280_pressure;Samples;Min_cycle;Max_cycle;Signal;HPM_P1;HPM_P2
2021/06/13 00:01:58;;;;;;;5.28;4.43;;;24.40;59.10;;;;;;5231001;28;20436;-63
2021/06/13 00:04:32;;;;;;;8.02;5.25;;;24.40;59.10;;;;;;5210906;28;20060;-63
2021/06/13 00:07:04;;;;;;;;;;;24.40;59.00;;;;;;5230174;28;20048;-61
2021/06/13 00:09:37;;;;;;;5.45;4.70;;;24.40;59.00;;;;;;5235659;28;19924;-61
2021/06/13 00:12:10;;;;;;;7.03;5.50;;;24.40;59.10;;;;;;5235119;28;20593;-61
2021/06/13 00:14:43;;;;;;;5.60;4.95;;;24.40;59.00;;;;;;5215192;28;20048;-65
2021/06/13 00:17:17;;;;;;;6.53;5.13;;;24.30;59.00;;;;;;5230740;28;20626;-65
2021/06/13 00:19:50;;;;;;;6.43;5.25;;;24.40;58.90;;;;;;5234475;28;20547;-64
2021/06/13 00:22:22;;;;;;;6.17;4.97;;;24.30;58.90;;;;;;5236941;28;20036;-62
2021/06/13 00:24:55;;;;;;;5.70;4.73;;;24.30;58.80;;;;;;5205362;28;20044;-61
2021/06/13 00:27:28;;;;;;;7.72;4.82;;;24.30;58.80;;;;;;5238663;28;20460;-58
2021/06/13 00:30:00;;;;;;;7.60;5.10;;;24.30;58.90;;;;;;5238742;28;20052;-61
2021/06/13 00:32:33;;;;;;;5.70;5.10;;;24.30;58.90;;;;;;5216472;28;20049;-60
2021/06/13 00:35:06;;;;;;;8.38;5.07;;;24.30;58.80;;;;;;5236741;28;20048;-62
2021/06/13 00:37:39;;;;;;;;;;;24.30;58.70;;;;;;5214732;28;20052;-62
2021/06/13 00:40:12;;;;;;;7.85;5.70;;;24.20;58.60;;;;;;5240550;28;19946;-61
2021/06/13 00:42:47;;;;;;;8.10;5.45;;;24.30;58.70;;;;;;5238956;28;20060;-60
2021/06/13 00:45:23;;;;;;;6.65;5.20;;;24.30;58.60;;;;;;5238326;28;20836;-64
2021/06/13 00:47:55;;;;;;;8.52;5.65;;;24.20;58.60;;;;;;5236339;28;20051;-61
2021/06/13 00:50:31;;;;;;;6.30;5.70;;;24.20;58.60;;;;;;5238008;28;20048;-63
2021/06/13 00:53:06;;;;;;;8.45;5.60;;;24.20;58.60;;;;;;5234387;28;20531;-60
2021/06/13 00:55:42;;;;;;;6.22;5.03;;;24.20;58.60;;;;;;5240995;28;20060;-64
2021/06/13 00:58:15;;;;;;;8.63;5.60;;;24.20;58.60;;;;;;5234681;28;20056;-61
2021/06/13 01:00:47;;;;;;;8.67;5.73;;;24.20;58.50;;;;;;5216493;28;21006;-63
2021/06/13 01:03:20;;;;;;;7.18;5.93;;;24.20;58.60;;;;;;5232136;28;20309;-60
2021/06/13 01:05:53;;;;;;;9.27;6.10;;;24.20;58.80;;;;;;5232920;28;20052;-64
2021/06/13 01:09:04;;;;;;;9.63;5.88;;;24.20;58.50;;;;;;5215493;28;20059;-63
2021/06/13 01:11:55;;;;;;;9.23;6.03;;;24.10;58.20;;;;;;5202490;28;20059;-61
2021/06/13 01:14:38;;;;;;;8.20;6.07;;;24.10;58.30;;;;;;5197856;28;20055;-61
2021/06/13 01:17:18;;;;;;;10.90;6.47;;;24.10;58.30;;;;;;5198827;28;20517;-62
2021/06/13 01:20:02;;;;;;;7.55;6.20;;;24.10;58.30;;;;;;5236782;28;20063;-61
2021/06/13 01:22:50;;;;;;;6.75;5.60;;;24.10;58.30;;;;;;5233860;28;20059;-62
2021/06/13 01:25:35;;;;;;;7.75;6.28;;;24.10;58.30;;;;;;5206447;28;20056;-58
2021/06/13 01:28:36;;;;;;;9.15;5.72;;;24.10;58.40;;;;;;5242091;28;20048;-62
2021/06/13 01:31:09;;;;;;;9.07;5.80;;;24.10;58.40;;;;;;5230060;28;20416;-63
2021/06/13 01:33:45;;;;;;;9.23;6.20;;;24.00;59.20;;;;;;5218833;28;20055;-61
2021/06/13 01:36:20;;;;;;;8.35;6.13;;;24.10;58.60;;;;;;5232976;28;20056;-65
2021/06/13 01:38:55;;;;;;;6.60;5.65;;;24.00;58.60;;;;;;5208323;28;20056;-61
2021/06/13 01:41:33;;;;;;;10.07;6.10;;;24.10;58.70;;;;;;5229069;28;20582;-62
2021/06/13 01:44:07;;;;;;;8.13;5.60;;;24.00;58.60;;;;;;5238688;28;20050;-62
2021/06/13 01:46:41;;;;;;;6.95;5.85;;;24.10;58.60;;;;;;5223751;28;20052;-65
2021/06/13 01:49:20;;;;;;;7.68;5.95;;;24.00;58.50;;;;;;5233710;28;20353;-58
2021/06/13 01:51:54;;;;;;;9.20;6.07;;;24.00;58.40;;;;;;5215239;28;20729;-61
2021/06/13 01:54:31;;;;;;;8.98;6.18;;;24.00;58.40;;;;;;5229373;28;21334;-65
2021/06/13 01:57:06;;;;;;;7.53;6.07;;;24.00;58.30;;;;;;5237688;28;20519;-65
2021/06/13 01:59:54;;;;;;;7.32;6.28;;;24.00;58.30;;;;;;5220978;28;20051;-61
2021/06/13 02:02:28;;;;;;;8.70;6.30;;;24.00;58.20;;;;;;5214206;28;20284;-61
2021/06/13 02:05:02;;;;;;;9.32;5.88;;;23.90;58.10;;;;;;5235066;28;20051;-58
2021/06/13 02:07:37;;;;;;;7.22;5.80;;;24.00;58.20;;;;;;5225092;28;20052;-60
2021/06/13 02:10:11;;;;;;;11.40;6.50;;;24.00;58.10;;;;;;5213651;28;20055;-61
2021/06/13 02:12:46;;;;;;;10.68;5.95;;;23.90;58.00;;;;;;5204390;28;20052;-61
2021/06/13 02:15:23;;;;;;;8.55;6.05;;;23.90;58.10;;;;;;5224091;28;20040;-61
2021/06/13 02:18:04;;;;;;;7.50;6.05;;;24.00;58.80;;;;;;5204580;28;20044;-61
2021/06/13 02:20:39;;;;;;;7.32;5.50;;;24.00;58.10;;;;;;5233726;28;20044;-62
2021/06/13 02:23:12;;;;;;;8.38;5.72;;;23.90;58.10;;;;;;5234550;28;20048;-62
2021/06/13 02:25:46;;;;;;;11.25;5.95;;;23.90;58.00;;;;;;5214925;28;20059;-62
2021/06/13 02:28:23;;;;;;;9.45;6.40;;;24.00;58.10;;;;;;5212650;28;20063;-60
2021/06/13 02:30:58;;;;;;;7.95;6.30;;;24.00;58.00;;;;;;5215607;28;20516;-65
2021/06/13 02:33:32;;;;;;;7.95;5.57;;;23.90;57.90;;;;;;5214663;28;20071;-65
2021/06/13 02:36:12;;;;;;;10.63;5.32;;;23.90;57.90;;;;;;5206974;28;20060;-60
2021/06/13 02:38:59;;;;;;;9.60;5.95;;;23.90;58.00;;;;;;5226484;28;20067;-61
2021/06/13 02:41:32;;;;;;;;;;;23.90;57.90;;;;;;5220185;28;20260;-62
2021/06/13 02:44:05;;;;;;;6.97;5.57;;;23.90;57.80;;;;;;5231583;28;19924;-61
2021/06/13 02:46:40;;;;;;;8.60;5.97;;;23.90;57.90;;;;;;5228261;28;20151;-64
2021/06/13 02:49:13;;;;;;;6.82;5.70;;;23.90;57.80;;;;;;5231771;28;20045;-61
2021/06/13 02:52:29;;;;;;;11.02;6.55;;;23.80;57.60;;;;;;5235787;28;21459;-61
2021/06/13 02:55:03;;;;;;;9.23;6.03;;;23.80;57.40;;;;;;5210772;28;20052;-60
2021/06/13 02:57:51;;;;;;;8.43;5.50;;;23.80;57.50;;;;;;5205556;28;20468;-65
2021/06/13 03:00:25;;;;;;;12.65;6.40;;;23.80;57.40;;;;;;5231140;28;20070;-62
2021/06/13 03:03:01;;;;;;;9.13;6.68;;;23.80;57.40;;;;;;5233238;28;20052;-60
2021/06/13 03:05:34;;;;;;;8.73;5.78;;;23.80;57.40;;;;;;5200546;28;20044;-60
2021/06/13 03:08:09;;;;;;;8.32;5.53;;;23.80;57.40;;;;;;5230762;28;20063;-62
2021/06/13 03:10:43;;;;;;;7.53;5.55;;;23.80;57.40;;;;;;5212900;28;20071;-65
2021/06/13 03:13:17;;;;;;;10.48;5.80;;;23.80;57.40;;;;;;5221144;28;20459;-60
2021/06/13 03:15:50;;;;;;;8.80;6.07;;;23.80;57.60;;;;;;5200443;28;20059;-64
2021/06/13 03:18:25;;;;;;;9.38;5.68;;;23.80;57.50;;;;;;5195901;28;20052;-58
2021/06/13 03:20:59;;;;;;;9.13;6.07;;;23.80;57.50;;;;;;5228222;28;20433;-65
2021/06/13 03:23:33;;;;;;;6.88;5.78;;;23.80;57.50;;;;;;5217247;28;20052;-62
2021/06/13 03:26:08;;;;;;;9.50;6.07;;;23.80;57.50;;;;;;5226147;28;20135;-60
2021/06/13 03:28:42;;;;;;;10.90;6.20;;;23.70;57.50;;;;;;5207060;28;20055;-64
2021/06/13 03:31:15;;;;;;;9.80;5.60;;;23.80;57.70;;;;;;5216047;28;20048;-65
2021/06/13 03:33:49;;;;;;;8.77;6.72;;;23.80;57.60;;;;;;5229262;28;20055;-64
2021/06/13 03:36:23;;;;;;;8.70;6.53;;;23.70;57.50;;;;;;5224183;28;20044;-62
2021/06/13 03:38:57;;;;;;;9.27;5.80;;;23.70;57.50;;;;;;5230785;28;20044;-65
2021/06/13 03:41:30;;;;;;;10.75;5.65;;;23.70;57.50;;;;;;5221048;28;20504;-61
2021/06/13 03:44:03;;;;;;;11.33;6.60;;;23.70;57.50;;;;;;5215228;28;20055;-59
2021/06/13 03:46:37;;;;;;;9.63;6.07;;;23.70;57.50;;;;;;5194778;28;20040;-60
2021/06/13 03:49:11;;;;;;;9.95;6.60;;;23.70;57.50;;;;;;5229344;28;20520;-61
2021/06/13 03:51:44;;;;;;;9.80;6.60;;;23.70;57.50;;;;;;5220918;28;20583;-63
2021/06/13 03:54:17;;;;;;;8.32;5.93;;;23.70;57.50;;;;;;5231861;28;20048;-62
2021/06/13 03:56:59;;;;;;;9.10;6.10;;;23.70;57.50;;;;;;5225878;28;20062;-61
2021/06/13 03:59:33;;;;;;;7.07;6.00;;;23.70;57.40;;;;;;5230779;28;20170;-63
2021/06/13 04:02:06;;;;;;;10.50;6.72;;;23.70;57.50;;;;;;5226428;28;20052;-65
2021/06/13 04:04:49;;;;;;;12.95;6.82;;;23.70;57.50;;;;;;5217748;28;20356;-63
2021/06/13 04:07:22;;;;;;;10.73;6.23;;;23.60;57.40;;;;;;5219962;28;21513;-60
2021/06/13 04:09:57;;;;;;;10.80;6.05;;;23.60;57.70;;;;;;5210602;28;20294;-65
2021/06/13 04:12:30;;;;;;;8.07;6.03;;;23.70;57.70;;;;;;5222142;28;20503;-64
2021/06/13 04:15:04;;;;;;;7.22;5.80;;;23.70;57.80;;;;;;5206900;28;20051;-65
2021/06/13 04:17:38;;;;;;;8.13;5.95;;;23.70;58.70;;;;;;5226343;28;20136;-60
2021/06/13 04:20:12;;;;;;;7.78;5.45;;;23.70;58.30;;;;;;5210364;28;20048;-60
2021/06/13 04:22:44;;;;;;;7.03;5.05;;;23.70;58.50;;;;;;5199245;28;20052;-60
2021/06/13 04:25:18;;;;;;;7.07;5.80;;;23.80;58.80;;;;;;5228352;28;20224;-58
2021/06/13 04:27:53;;;;;;;7.38;6.07;;;23.80;58.90;;;;;;5226123;28;20305;-65
2021/06/13 04:30:27;;;;;;;9.00;5.95;;;23.80;59.10;;;;;;5232437;28;20509;-63
2021/06/13 04:33:00;;;;;;;9.98;6.05;;;23.80;59.20;;;;;;5219776;28;21804;-63
2021/06/13 04:35:34;;;;;;;8.50;5.70;;;23.80;59.30;;;;;;5230897;28;20630;-63
2021/06/13 04:38:06;;;;;;;7.03;5.35;;;23.80;59.40;;;;;;5222960;28;22318;-60
2021/06/13 04:40:39;;;;;;;8.02;5.65;;;23.80;59.50;;;;;;5226289;28;25427;-61
2021/06/13 04:43:11;;;;;;;10.20;6.10;;;23.90;59.60;;;;;;5232875;28;20424;-61
2021/06/13 04:45:44;;;;;;;10.00;5.95;;;23.80;59.60;;;;;;5226923;28;20079;-59
2021/06/13 04:48:19;;;;;;;16.40;6.13;;;23.90;59.80;;;;;;5223853;28;20052;-64
2021/06/13 04:50:52;;;;;;;8.15;5.88;;;23.90;59.90;;;;;;5227568;28;20406;-61
2021/06/13 04:53:57;;;;;;;9.57;5.50;;;23.90;59.90;;;;;;5233802;28;20056;-62
2021/06/13 04:56:33;;;;;;;6.53;5.10;;;23.90;60.00;;;;;;5204674;28;20052;-62
2021/06/13 04:59:05;;;;;;;6.07;5.45;;;23.90;60.10;;;;;;5231732;28;20429;-59
2021/06/13 05:01:42;;;;;;;8.10;5.30;;;23.90;60.10;;;;;;5237946;28;20059;-58
2021/06/13 05:04:15;;;;;;;9.73;6.07;;;23.90;60.20;;;;;;5225151;28;20292;-65
2021/06/13 05:06:48;;;;;;;;;;;23.90;60.30;;;;;;5221174;28;20059;-62
2021/06/13 05:09:20;;;;;;;6.10;5.50;;;23.90;60.40;;;;;;5206232;28;19925;-60
2021/06/13 05:11:52;;;;;;;7.18;5.57;;;23.90;60.40;;;;;;5221858;28;20056;-59
2021/06/13 05:14:25;;;;;;;7.90;5.83;;;23.90;60.50;;;;;;5234548;28;20052;-65
2021/06/13 05:16:58;;;;;;;6.63;5.57;;;23.90;60.50;;;;;;5229671;28;20056;-59
2021/06/13 05:19:31;;;;;;;7.05;5.20;;;23.90;60.60;;;;;;5229738;28;20504;-61
2021/06/13 05:22:05;;;;;;;7.57;5.70;;;23.90;60.70;;;;;;5193956;28;23296;-61
2021/06/13 05:24:38;;;;;;;8.65;5.43;;;23.90;60.70;;;;;;5205237;28;20044;-60
2021/06/13 05:27:10;;;;;;;7.53;5.70;;;23.90;60.80;;;;;;5227083;28;20079;-64
2021/06/13 05:29:42;;;;;;;6.82;5.38;;;23.90;60.80;;;;;;5230624;28;20048;-60
2021/06/13 05:32:15;;;;;;;6.10;5.50;;;23.90;60.80;;;;;;5216632;28;20056;-62
2021/06/13 05:34:48;;;;;;;8.82;5.43;;;23.90;60.80;;;;;;5209505;28;20535;-59
2021/06/13 05:37:20;;;;;;;8.57;5.22;;;24.00;60.90;;;;;;5219070;28;20067;-61
2021/06/13 05:39:53;;;;;;;9.70;6.00;;;24.00;61.00;;;;;;5221508;28;20060;-61
2021/06/13 05:42:25;;;;;;;9.38;5.38;;;24.00;61.00;;;;;;5216849;28;20060;-62
2021/06/13 05:44:58;;;;;;;6.60;4.95;;;24.00;61.10;;;;;;5219510;28;20547;-60
2021/06/13 05:47:30;;;;;;;6.87;5.60;;;23.90;61.10;;;;;;5203256;28;20055;-63
2021/06/13 05:50:08;;;;;;;15.75;6.75;;;24.00;61.20;;;;;;5214871;28;25222;-62
2021/06/13 05:52:41;;;;;;;7.07;5.10;;;23.90;61.10;;;;;;5215823;28;20060;-61
2021/06/13 05:55:15;;;;;;;11.57;5.50;;;24.00;61.90;;;;;;5222406;28;20052;-63
2021/06/13 05:57:48;;;;;;;9.55;5.45;;;24.00;61.20;;;;;;5207696;28;20064;-65
2021/06/13 06:00:22;;;;;;;;;;;24.00;61.40;;;;;;5209548;28;20716;-63
2021/06/13 06:02:55;;;;;;;15.93;6.13;;;23.90;61.30;;;;;;5214963;28;20335;-61
2021/06/13 06:05:28;;;;;;;;;;;23.90;61.40;;;;;;5196989;28;20512;-61
2021/06/13 06:08:02;;;;;;;10.85;5.00;;;23.90;61.20;;;;;;5228033;28;20301;-63
2021/06/13 06:10:35;;;;;;;9.95;4.90;;;23.90;58.80;;;;;;5223803;28;20044;-62
2021/06/13 06:13:08;;;;;;;6.97;4.43;;;23.90;57.80;;;;;;5210424;28;20501;-60
2021/06/13 06:15:41;;;;;;;7.55;4.20;;;23.90;57.80;;;;;;5213192;28;21317;-62
2021/06/13 06:18:14;;;;;;;18.63;5.80;;;23.90;57.90;;;;;;5232081;28;20052;-63
2021/06/13 06:20:47;;;;;;;10.60;5.40;;;23.90;58.20;;;;;;5223562;28;20078;-57
2021/06/13 06:23:19;;;;;;;10.15;4.28;;;23.90;57.80;;;;;;5230605;28;21023;-60
2021/06/13 06:25:52;;;;;;;10.93;4.95;;;23.90;57.20;;;;;;5210929;28;20146;-58
2021/06/13 06:28:24;;;;;;;15.87;5.33;;;23.90;57.00;;;;;;5207136;28;20067;-60
2021/06/13 06:30:57;;;;;;;10.57;4.47;;;23.90;57.60;;;;;;5231024;28;20059;-59
2021/06/13 06:33:31;;;;;;;12.05;4.78;;;23.90;57.30;;;;;;5233645;28;20052;-64
2021/06/13 06:36:05;;;;;;;12.35;5.10;;;23.90;57.60;;;;;;5229762;28;20424;-62
2021/06/13 06:38:37;;;;;;;9.75;4.07;;;24.00;57.90;;;;;;5233741;28;20089;-58
2021/06/13 06:41:10;;;;;;;7.55;4.50;;;24.00;58.10;;;;;;5211313;28;20063;-61
2021/06/13 06:43:43;;;;;;;6.47;4.20;;;23.90;58.20;;;;;;5207051;28;20056;-58
2021/06/13 06:46:16;;;;;;;10.32;4.80;;;23.90;58.40;;;;;;5230648;28;20047;-55
2021/06/13 06:48:48;;;;;;;6.85;4.40;;;24.00;58.50;;;;;;5236380;28;20048;-59
2021/06/13 06:51:21;;;;;;;6.60;3.97;;;23.90;58.60;;;;;;5232167;28;20649;-63
2021/06/13 06:53:55;;;;;;;7.05;4.05;;;23.90;58.70;;;;;;5230355;28;20066;-55
2021/06/13 06:56:29;;;;;;;6.60;4.15;;;24.00;58.80;;;;;;5221488;28;20262;-57
2021/06/13 06:59:01;;;;;;;;;;;24.00;58.90;;;;;;5231561;28;20329;-54
2021/06/13 07:01:34;;;;;;;6.05;3.78;;;24.00;59.00;;;;;;5235353;28;19931;-57
2021/06/13 07:04:07;;;;;;;8.15;4.65;;;24.00;59.20;;;;;;5231518;28;20052;-59
2021/06/13 07:06:39;;;;;;;10.15;4.03;;;24.00;59.30;;;;;;5237243;28;20060;-62
2021/06/13 07:09:12;;;;;;;10.03;4.83;;;24.00;59.30;;;;;;5234755;28;20273;-59
2021/06/13 07:11:45;;;;;;;8.23;4.60;;;24.00;59.40;;;;;;5239293;28;20055;-59
2021/06/13 07:14:17;;;;;;;8.93;4.45;;;24.00;59.50;;;;;;5238782;28;20044;-58
2021/06/13 07:16:49;;;;;;;11.73;5.50;;;24.10;59.80;;;;;;5240207;28;20040;-58
2021/06/13 07:19:22;;;;;;;8.10;3.88;;;24.10;59.80;;;;;;5232293;28;20056;-54
2021/06/13 07:21:55;;;;;;;11.32;4.47;;;24.10;59.90;;;;;;5242192;28;20063;-58
2021/06/13 07:24:27;;;;;;;9.35;4.00;;;24.00;59.70;;;;;;5234183;28;20050;-61
2021/06/13 07:27:00;;;;;;;13.13;4.25;;;24.10;60.00;;;;;;5236485;28;20063;-64
2021/06/13 07:29:33;;;;;;;10.00;4.30;;;24.10;60.00;;;;;;5226429;28;20044;-63
2021/06/13 07:32:05;;;;;;;17.70;4.80;;;24.20;60.00;;;;;;5231642;28;20501;-58
2021/06/13 07:34:38;;;;;;;10.73;4.90;;;24.10;60.00;;;;;;5217105;28;20413;-61
2021/06/13 07:37:12;;;;;;;10.45;4.05;;;24.10;57.60;;;;;;5223676;28;20740;-55
2021/06/13 07:39:45;;;;;;;9.90;4.68;;;24.10;57.30;;;;;;5225663;28;20051;-63
2021/06/13 07:42:17;;;;;;;7.82;4.07;;;24.10;57.80;;;;;;5232919;28;20056;-62
2021/06/13 07:44:51;;;;;;;16.00;4.68;;;24.10;58.40;;;;;;5226995;28;20355;-58
2021/06/13 07:47:24;;;;;;;11.13;4.25;;;24.20;58.70;;;;;;5226303;28;20092;-59
2021/06/13 07:49:58;;;;;;;12.05;4.10;;;24.20;58.90;;;;;;5231078;28;20062;-60
2021/06/13 07:52:31;;;;;;;19.27;4.65;;;24.20;59.00;;;;;;5220695;28;20527;-54
2021/06/13 07:55:06;;;;;;;9.60;3.63;;;24.20;58.80;;;;;;5234597;28;20052;-56
2021/06/13 07:57:40;;;;;;;11.05;4.63;;;24.20;58.80;;;;;;5222557;28;20048;-60
2021/06/13 08:00:15;;;;;;;7.40;4.30;;;24.20;57.20;;;;;;5238178;28;20056;-59
2021/06/13 08:02:54;;;;;;;8.93;4.70;;;24.10;56.20;;;;;;5229552;28;20063;-59
2021/06/13 08:05:28;;;;;;;12.52;4.38;;;24.10;55.70;;;;;;5212137;28;20055;-62
2021/06/13 08:08:07;;;;;;;11.15;4.63;;;24.10;55.60;;;;;;5238752;28;20058;-58
2021/06/13 08:10:39;;;;;;;8.02;4.82;;;24.10;55.40;;;;;;5229863;28;20632;-58
2021/06/13 08:13:13;;;;;;;6.75;4.70;;;24.10;55.30;;;;;;5234937;28;20059;-56
2021/06/13 08:15:45;;;;;;;9.65;4.80;;;24.10;55.30;;;;;;5212461;28;20056;-55
2021/06/13 08:18:18;;;;;;;11.20;5.30;;;24.10;55.30;;;;;;5232805;28;20060;-54
2021/06/13 08:20:51;;;;;;;9.48;5.10;;;24.10;55.10;;;;;;5233534;28;20405;-54
2021/06/13 08:23:24;;;;;;;15.13;5.20;;;24.10;54.80;;;;;;5234970;28;20051;-53
2021/06/13 08:25:58;;;;;;;12.63;5.18;;;24.10;54.70;;;;;;5253958;28;20295;-60
2021/06/13 08:28:31;;;;;;;9.77;4.97;;;24.10;54.60;;;;;;5233167;28;20051;-55
2021/06/13 08:31:04;;;;;;;9.63;4.70;;;24.10;54.50;;;;;;5233378;28;20431;-61
2021/06/13 08:33:36;;;;;;;8.75;4.78;;;24.10;54.60;;;;;;5221069;28;20047;-55
2021/06/13 08:36:09;;;;;;;11.73;5.30;;;24.00;54.60;;;;;;5232258;28;20055;-50
2021/06/13 08:38:41;;;;;;;12.00;4.40;;;24.00;54.90;;;;;;5234563;28;20571;-55
2021/06/13 08:41:15;;;;;;;12.93;5.28;;;24.10;54.90;;;;;;5233205;28;20048;-53
2021/06/13 08:43:49;;;;;;;20.10;5.53;;;24.10;54.50;;;;;;5231249;28;20048;-61
2021/06/13 08:46:22;;;;;;;21.67;6.68;;;24.10;55.30;;;;;;5228897;28;20633;-54
2021/06/13 08:48:55;;;;;;;26.85;6.47;;;24.10;55.80;;;;;;5224791;28;20071;-54
2021/06/13 08:51:27;;;;;;;30.58;6.05;;;24.10;56.20;;;;;;5210689;28;20454;-55
2021/06/13 08:54:00;;;;;;;38.25;7.32;;;24.20;57.00;;;;;;5228607;28;20048;-57
2021/06/13 08:56:33;;;;;;;19.13;6.75;;;24.10;57.30;;;;;;5231244;28;20598;-55
2021/06/13 08:59:05;;;;;;;19.98;6.05;;;24.20;57.50;;;;;;5235929;28;20062;-51
2021/06/13 09:01:38;;;;;;;27.52;5.50;;;24.20;58.50;;;;;;5231989;28;20645;-56
2021/06/13 09:04:11;;;;;;;20.65;5.18;;;24.20;58.00;;;;;;5237517;28;20052;-55
2021/06/13 09:06:43;;;;;;;16.63;5.53;;;24.20;57.70;;;;;;5236087;28;20079;-54
2021/06/13 09:09:26;;;;;;;10.95;4.88;;;24.20;57.40;;;;;;5232962;28;20519;-55
2021/06/13 09:12:02;;;;;;;9.88;4.80;;;24.20;56.40;;;;;;5238741;28;20057;-54
2021/06/13 09:14:41;;;;;;;7.00;4.50;;;24.20;55.80;;;;;;5229645;28;20058;-55
2021/06/13 09:17:25;;;;;;;7.65;4.22;;;24.20;55.10;;;;;;5228264;28;20055;-53
2021/06/13 09:20:08;;;;;;;11.40;4.95;;;24.20;55.10;;;;;;5232717;28;20059;-57
2021/06/13 09:22:42;;;;;;;8.73;4.70;;;24.20;55.00;;;;;;5226403;28;20060;-50
2021/06/13 09:25:14;;;;;;;11.20;4.80;;;24.20;55.00;;;;;;5242482;28;20063;-56
2021/06/13 09:28:15;;;;;;;7.20;4.67;;;24.20;54.70;;;;;;5239598;28;20048;-50
2021/06/13 09:30:51;;;;;;;8.93;4.25;;;24.20;54.60;;;;;;5210148;28;20521;-53
2021/06/13 09:33:34;;;;;;;12.48;4.30;;;24.20;54.20;;;;;;5231369;28;20053;-57
2021/06/13 09:36:08;;;;;;;4.75;3.85;;;24.20;54.10;;;;;;5219094;28;20045;-53
2021/06/13 09:38:46;;;;;;;9.35;3.80;;;24.20;54.10;;;;;;5228232;28;20059;-55
2021/06/13 09:41:22;;;;;;;8.05;4.50;;;24.20;54.10;;;;;;5234886;28;21050;-50
2021/06/13 09:44:03;;;;;;;6.57;3.78;;;24.20;54.10;;;;;;5232312;28;20061;-58
2021/06/13 09:46:42;;;;;;;8.55;4.03;;;24.20;54.00;;;;;;5237034;28;20420;-57
2021/06/13 09:49:16;;;;;;;7.88;4.35;;;24.20;53.90;;;;;;5234637;28;20047;-57
2021/06/13 09:51:53;;;;;;;5.60;3.90;;;24.20;54.70;;;;;;5218702;28;20047;-51
2021/06/13 09:54:27;;;;;;;5.35;4.00;;;24.20;55.30;;;;;;5239290;28;20048;-57
2021/06/13 09:57:04;;;;;;;8.35;4.55;;;24.20;55.90;;;;;;5234261;28;20044;-58
2021/06/13 09:59:36;;;;;;;6.65;4.13;;;24.20;56.00;;;;;;5218250;28;20059;-51
2021/06/13 10:02:09;;;;;;;7.47;3.90;;;24.20;56.00;;;;;;5228319;28;20456;-55
2021/06/13 10:04:42;;;;;;;6.10;4.03;;;24.20;56.10;;;;;;5201887;28;20056;-58
2021/06/13 10:07:14;;;;;;;5.72;3.70;;;24.20;56.20;;;;;;5228841;28;20056;-55
2021/06/13 10:09:52;;;;;;;6.50;4.27;;;24.30;56.20;;;;;;5233389;28;20052;-50
2021/06/13 10:12:25;;;;;;;6.13;3.88;;;24.30;56.20;;;;;;5233826;28;20052;-58
2021/06/13 10:15:11;;;;;;;3.87;3.33;;;24.30;56.20;;;;;;5234235;28;20048;-56
2021/06/13 10:17:44;;;;;;;7.32;3.50;;;24.30;56.20;;;;;;5234603;28;20785;-50
2021/06/13 10:20:24;;;;;;;6.05;3.83;;;24.30;56.30;;;;;;5231551;28;20495;-58
2021/06/13 10:22:56;;;;;;;6.70;4.28;;;24.30;56.30;;;;;;5232149;28;20729;-49
2021/06/13 10:25:30;;;;;;;7.35;4.35;;;24.30;56.30;;;;;;5239370;28;20815;-52
2021/06/13 10:28:03;;;;;;;4.33;3.90;;;24.30;56.20;;;;;;5238403;28;20531;-53
2021/06/13 10:30:36;;;;;;;6.30;3.97;;;24.30;56.20;;;;;;5238677;28;20052;-51
2021/06/13 10:33:08;;;;;;;5.55;3.50;;;24.30;56.10;;;;;;5239665;28;20052;-54
2021/06/13 10:35:41;;;;;;;6.82;4.50;;;24.30;56.10;;;;;;5228809;28;20078;-56
2021/06/13 10:38:14;;;;;;;5.05;3.80;;;24.30;56.10;;;;;;5240316;28;20052;-51
2021/06/13 10:40:46;;;;;;;5.38;4.07;;;24.30;56.20;;;;;;5237313;28;20056;-52
2021/06/13 10:43:28;;;;;;;4.10;3.42;;;24.30;56.20;;;;;;5237547;28;20071;-53
2021/06/13 10:46:11;;;;;;;6.30;3.97;;;24.30;56.20;;;;;;5218404;28;20117;-53
2021/06/13 10:48:50;;;;;;;6.07;3.92;;;24.40;56.30;;;;;;5233117;28;20519;-56
2021/06/13 10:51:44;;;;;;;8.93;3.80;;;24.30;56.30;;;;;;5236026;28;20048;-58
2021/06/13 10:54:20;;;;;;;4.90;4.13;;;24.40;56.30;;;;;;5227482;28;20079;-58
2021/06/13 10:57:00;;;;;;;4.22;3.38;;;24.40;56.30;;;;;;5235921;28;20044;-53
2021/06/13 10:59:34;;;;;;;6.53;3.35;;;24.40;56.30;;;;;;5230721;28;20044;-55
2021/06/13 11:02:12;;;;;;;4.70;3.42;;;24.40;56.40;;;;;;5232981;28;20056;-50
2021/06/13 11:05:07;;;;;;;5.13;3.35;;;24.40;56.40;;;;;;5235859;28;20040;-56
2021/06/13 11:07:44;;;;;;;5.90;3.90;;;24.40;56.40;;;;;;5213825;28;20394;-56
2021/06/13 11:10:31;;;;;;;5.32;3.30;;;24.40;56.20;;;;;;5199505;28;20263;-57
2021/06/13 11:13:10;;;;;;;4.35;3.58;;;24.40;56.00;;;;;;5171898;28;20048;-56
2021/06/13 11:15:47;;;;;;;5.22;3.33;;;24.40;55.90;;;;;;5215104;28;20052;-58
2021/06/13 11:18:21;;;;;;;4.32;3.17;;;24.50;55.90;;;;;;5211241;28;22248;-55
2021/06/13 11:21:10;;;;;;;4.97;3.20;;;24.50;55.60;;;;;;5209209;28;20421;-54
2021/06/13 11:23:43;;;;;;;5.85;3.42;;;24.60;55.80;;;;;;5223901;28;20058;-55
2021/06/13 11:26:32;;;;;;;5.35;3.65;;;24.70;55.70;;;;;;5220579;28;20535;-55
2021/06/13 11:29:06;;;;;;;4.53;3.58;;;24.70;55.60;;;;;;5244917;28;20051;-53
2021/06/13 11:31:44;;;;;;;4.75;3.30;;;24.80;55.70;;;;;;5235602;28;20044;-51
2021/06/13 11:34:18;;;;;;;7.20;3.55;;;24.80;55.60;;;;;;5227659;28;20056;-57
2021/06/13 11:36:51;;;;;;;;;;;24.80;55.20;;;;;;5242085;28;20628;-53
2021/06/13 11:39:25;;;;;;;6.45;3.17;;;24.80;55.20;;;;;;5217572;28;19935;-56
2021/06/13 11:42:16;;;;;;;7.03;3.78;;;24.90;55.30;;;;;;5238516;28;20052;-51
2021/06/13 11:44:51;;;;;;;7.10;3.67;;;25.00;56.00;;;;;;5240711;28;20052;-51
2021/06/13 11:47:31;;;;;;;6.30;3.80;;;25.00;56.10;;;;;;5221672;28;20064;-53
2021/06/13 11:50:07;;;;;;;11.90;3.95;;;25.00;56.10;;;;;;5238636;28;20060;-57
2021/06/13 11:52:48;;;;;;;10.90;3.88;;;25.10;56.40;;;;;;5215610;28;20044;-55
2021/06/13 11:55:47;;;;;;;6.60;3.60;;;25.10;56.40;;;;;;5235959;28;20060;-57
2021/06/13 11:58:20;;;;;;;5.05;3.47;;;25.10;56.70;;;;;;5238983;28;20052;-56
2021/06/13 12:00:54;;;;;;;6.85;3.88;;;25.10;56.70;;;;;;5242953;28;20060;-50
2021/06/13 12:03:27;;;;;;;8.10;3.35;;;25.10;56.90;;;;;;5235371;28;20717;-57
2021/06/13 12:06:03;;;;;;;8.30;3.55;;;25.10;56.80;;;;;;5230457;28;20401;-55
2021/06/13 12:08:40;;;;;;;5.72;3.72;;;25.10;56.90;;;;;;5223630;28;20052;-47
2021/06/13 12:11:37;;;;;;;7.50;3.75;;;25.10;56.90;;;;;;5233853;28;20885;-52
2021/06/13 12:14:15;;;;;;;7.68;3.83;;;25.10;57.10;;;;;;5242048;28;20071;-47
2021/06/13 12:16:50;;;;;;;6.45;3.65;;;25.20;57.30;;;;;;5235093;28;20059;-55
2021/06/13 12:19:41;;;;;;;7.28;3.58;;;25.10;57.20;;;;;;5244699;28;20055;-59
2021/06/13 12:27:48;;;;;;;5.85;3.78;;;25.10;57.30;;;;;;5235987;28;20056;-54
2021/06/13 12:30:24;;;;;;;13.52;4.57;;;25.10;57.40;;;;;;5224018;28;21118;-53
2021/06/13 12:32:57;;;;;;;7.32;3.95;;;25.20;57.50;;;;;;5243060;28;20413;-53
2021/06/13 12:35:32;;;;;;;6.30;3.60;;;25.10;57.50;;;;;;5244770;28;20064;-51
2021/06/13 12:38:12;;;;;;;9.15;4.68;;;25.20;57.40;;;;;;5224326;28;20043;-49
2021/06/13 12:40:51;;;;;;;8.73;4.75;;;25.10;56.70;;;;;;5243647;28;20055;-55
2021/06/13 12:43:43;;;;;;;9.95;5.00;;;25.10;56.80;;;;;;5229560;28;20136;-53
2021/06/13 12:46:17;;;;;;;8.50;4.68;;;25.10;56.40;;;;;;5231113;28;20048;-48
2021/06/13 12:48:55;;;;;;;;;;;25.10;56.60;;;;;;5234363;28;20047;-51
2021/06/13 12:51:31;;;;;;;13.93;5.80;;;25.00;56.40;;;;;;5231164;28;19924;-54
2021/06/13 12:54:22;;;;;;;8.10;5.03;;;25.00;56.60;;;;;;5238926;28;20055;-52
2021/06/13 12:56:55;;;;;;;10.23;6.22;;;25.00;56.30;;;;;;5233723;28;20059;-49
2021/06/13 12:59:28;;;;;;;11.15;5.90;;;25.00;56.40;;;;;;5231233;28;20052;-54
2021/06/13 13:02:01;;;;;;;9.90;5.47;;;25.00;56.40;;;;;;5233110;28;25768;-54
2021/06/13 13:04:47;;;;;;;10.13;6.07;;;24.90;56.30;;;;;;5223779;28;20091;-53
2021/06/13 13:07:30;;;;;;;9.50;5.32;;;24.90;56.30;;;;;;5227230;28;20060;-51
2021/06/13 13:10:09;;;;;;;20.30;5.60;;;24.90;56.20;;;;;;5209215;28;20059;-51
2021/06/13 13:12:55;;;;;;;18.08;6.10;;;24.90;55.90;;;;;;5235333;28;20059;-55
2021/06/13 13:15:30;;;;;;;21.48;6.35;;;24.90;55.70;;;;;;5210847;28;20468;-58
2021/06/13 13:18:15;;;;;;;16.33;6.18;;;24.90;55.80;;;;;;5227350;28;20443;-51
2021/06/13 13:20:52;;;;;;;15.25;6.47;;;24.90;55.80;;;;;;5229366;28;20723;-52
2021/06/13 13:23:25;;;;;;;20.60;5.97;;;24.90;56.00;;;;;;5227989;28;20104;-52
2021/06/13 13:26:01;;;;;;;15.45;6.32;;;24.90;56.00;;;;;;5234306;28;20067;-47
2021/06/13 13:28:50;;;;;;;18.10;6.43;;;24.90;56.00;;;;;;5238323;28;20052;-53
2021/06/13 13:31:27;;;;;;;15.48;6.13;;;24.90;56.00;;;;;;5206855;28;20067;-59
2021/06/13 13:34:06;;;;;;;12.50;5.85;;;24.90;56.00;;;;;;5232954;28;20734;-58
2021/06/13 13:36:41;;;;;;;13.23;5.82;;;24.90;56.00;;;;;;5226142;28;20052;-59